sensor_id;sensor_type;location;lat;lon;timestamp;temperature;humidity
33994;DHT22;20673;48.980;8.138;2023-08-21T00:00:25;21.50;99.90
33994;DHT22;20673;48.980;8.138;2023-08-21T00:02:51;21.60;99.90
33994;DHT22;20673;48.980;8.138;2023-08-21T00:05:18;21.70;99.90
33994;DHT22;20673;48.980;8.138;2023-08-21T00:07:44;21.50;99.90
33994;DHT22;20673;48.980;8.138;2023-08-21T00:10:10;21.40;99.90
33994;DHT22;20673;48.980;8.138;2023-08-21T00:12:38;21.40;99.90
33994;DHT22;20673;48.980;8.138;2023-08-21T00:15:05;21.50;99.90
33994;DHT22;20673;48.980;8.138;2023-08-21T00:17:31;21.40;99.90
33994;DHT22;20673;48.980;8.138;2023-08-21T00:19:58;21.30;99.90
33994;DHT22;20673;48.980;8.138;2023-08-21T00:22:24;21.30;99.90
33994;DHT22;20673;48.980;8.138;2023-08-21T00:24:50;21.30;99.90
33994;DHT22;20673;48.980;8.138;2023-08-21T00:27:16;21.30;99.90
33994;DHT22;20673;48.980;8.138;2023-08-21T00:29:42;21.30;99.90
33994;DHT22;20673;48.980;8.138;2023-08-21T00:32:09;21.20;99.90
33994;DHT22;20673;48.980;8.138;2023-08-21T00:34:35;21.20;99.90
33994;DHT22;20673;48.980;8.138;2023-08-21T00:37:01;21.10;99.90
33994;DHT22;20673;48.980;8.138;2023-08-21T00:39:27;21.10;99.90
33994;DHT22;20673;48.980;8.138;2023-08-21T00:41:53;21.20;99.90
33994;DHT22;20673;48.980;8.138;2023-08-21T00:44:20;21.20;99.90
33994;DHT22;20673;48.980;8.138;2023-08-21T00:46:46;21.20;99.90
33994;DHT22;20673;48.980;8.138;2023-08-21T00:49:13;21.20;99.90
33994;DHT22;20673;48.980;8.138;2023-08-21T00:51:39;21.20;99.90
33994;DHT22;20673;48.980;8.138;2023-08-21T00:54:06;21.10;99.90
33994;DHT22;20673;48.980;8.138;2023-08-21T00:56:32;21.10;99.90
33994;DHT22;20673;48.980;8.138;2023-08-21T00:58:59;21.10;99.90
33994;DHT22;20673;48.980;8.138;2023-08-21T01:01:25;21.00;99.90
33994;DHT22;20673;48.980;8.138;2023-08-21T01:03:53;20.80;99.90
33994;DHT22;20673;48.980;8.138;2023-08-21T01:06:19;20.80;99.90
33994;DHT22;20673;48.980;8.138;2023-08-21T01:11:24;20.70;99.90
33994;DHT22;20673;48.980;8.138;2023-08-21T01:14:08;20.70;99.90
33994;DHT22;20673;48.980;8.138;2023-08-21T01:16:40;20.70;99.90
33994;DHT22;20673;48.980;8.138;2023-08-21T01:19:14;20.70;99.90
33994;DHT22;20673;48.980;8.138;2023-08-21T01:21:44;20.70;99.90
33994;DHT22;20673;48.980;8.138;2023-08-21T01:24:10;20.70;99.90
33994;DHT22;20673;48.980;8.138;2023-08-21T01:26:36;20.60;99.90
33994;DHT22;20673;48.980;8.138;2023-08-21T01:29:03;20.60;99.90
33994;DHT22;20673;48.980;8.138;2023-08-21T01:31:32;20.60;99.90
33994;DHT22;20673;48.980;8.138;2023-08-21T01:34:04;20.70;99.90
33994;DHT22;20673;48.980;8.138;2023-08-21T01:36:34;20.60;99.90
33994;DHT22;20673;48.980;8.138;2023-08-21T01:39:01;20.70;99.90
33994;DHT22;20673;48.980;8.138;2023-08-21T01:41:28;20.60;99.90
33994;DHT22;20673;48.980;8.138;2023-08-21T01:43:54;20.60;99.90
33994;DHT22;20673;48.980;8.138;2023-08-21T01:46:20;20.60;99.90
33994;DHT22;20673;48.980;8.138;2023-08-21T01:48:47;20.70;99.90
33994;DHT22;20673;48.980;8.138;2023-08-21T01:51:13;20.70;99.90
33994;DHT22;20673;48.980;8.138;2023-08-21T01:53:39;20.60;99.90
33994;DHT22;20673;48.980;8.138;2023-08-21T01:56:05;20.50;99.90
33994;DHT22;20673;48.980;8.138;2023-08-21T01:58:32;20.40;99.90
33994;DHT22;20673;48.980;8.138;2023-08-21T02:00:58;20.40;99.90
33994;DHT22;20673;48.980;8.138;2023-08-21T02:03:27;20.40;99.90
33994;DHT22;20673;48.980;8.138;2023-08-21T02:05:56;20.50;99.90
33994;DHT22;20673;48.980;8.138;2023-08-21T02:08:27;20.50;99.90
33994;DHT22;20673;48.980;8.138;2023-08-21T02:10:55;20.40;99.90
33994;DHT22;20673;48.980;8.138;2023-08-21T02:13:21;20.40;99.90
33994;DHT22;20673;48.980;8.138;2023-08-21T02:15:47;20.40;99.90
33994;DHT22;20673;48.980;8.138;2023-08-21T02:18:13;20.30;99.90
33994;DHT22;20673;48.980;8.138;2023-08-21T02:20:39;20.30;99.90
33994;DHT22;20673;48.980;8.138;2023-08-21T02:23:05;20.30;99.90
33994;DHT22;20673;48.980;8.138;2023-08-21T02:25:32;20.20;99.90
33994;DHT22;20673;48.980;8.138;2023-08-21T02:27:58;20.20;99.90
33994;DHT22;20673;48.980;8.138;2023-08-21T02:30:25;20.30;99.90
33994;DHT22;20673;48.980;8.138;2023-08-21T02:32:53;20.20;99.90
33994;DHT22;20673;48.980;8.138;2023-08-21T02:35:20;20.10;99.90
33994;DHT22;20673;48.980;8.138;2023-08-21T02:37:47;20.10;99.90
33994;DHT22;20673;48.980;8.138;2023-08-21T02:40:13;20.10;99.90
33994;DHT22;20673;48.980;8.138;2023-08-21T02:42:39;20.00;99.90
33994;DHT22;20673;48.980;8.138;2023-08-21T02:45:07;20.00;99.90
33994;DHT22;20673;48.980;8.138;2023-08-21T02:47:37;19.90;99.90
33994;DHT22;20673;48.980;8.138;2023-08-21T02:50:04;20.00;99.90
33994;DHT22;20673;48.980;8.138;2023-08-21T02:52:32;20.00;99.90
33994;DHT22;20673;48.980;8.138;2023-08-21T02:54:59;20.10;99.90
33994;DHT22;20673;48.980;8.138;2023-08-21T02:57:26;20.10;99.90
33994;DHT22;20673;48.980;8.138;2023-08-21T02:59:54;20.00;99.90
33994;DHT22;20673;48.980;8.138;2023-08-21T03:02:21;20.00;99.90
33994;DHT22;20673;48.980;8.138;2023-08-21T03:04:47;20.00;99.90
33994;DHT22;20673;48.980;8.138;2023-08-21T03:07:15;20.00;99.90
33994;DHT22;20673;48.980;8.138;2023-08-21T03:09:41;20.00;99.90
33994;DHT22;20673;48.980;8.138;2023-08-21T03:12:08;20.00;99.90
33994;DHT22;20673;48.980;8.138;2023-08-21T03:14:34;20.00;99.90
33994;DHT22;20673;48.980;8.138;2023-08-21T03:17:00;20.00;99.90
33994;DHT22;20673;48.980;8.138;2023-08-21T03:19:26;20.00;99.90
33994;DHT22;20673;48.980;8.138;2023-08-21T03:21:53;20.00;99.90
33994;DHT22;20673;48.980;8.138;2023-08-21T03:24:19;20.00;99.90
33994;DHT22;20673;48.980;8.138;2023-08-21T03:26:45;20.00;99.90
33994;DHT22;20673;48.980;8.138;2023-08-21T03:29:11;19.90;99.90
33994;DHT22;20673;48.980;8.138;2023-08-21T03:31:37;19.90;99.90
33994;DHT22;20673;48.980;8.138;2023-08-21T03:34:03;19.80;99.90
33994;DHT22;20673;48.980;8.138;2023-08-21T03:36:29;19.90;99.90
33994;DHT22;20673;48.980;8.138;2023-08-21T03:38:59;19.90;99.90
33994;DHT22;20673;48.980;8.138;2023-08-21T03:41:27;20.00;99.90
33994;DHT22;20673;48.980;8.138;2023-08-21T03:43:53;19.90;99.90
33994;DHT22;20673;48.980;8.138;2023-08-21T03:46:19;19.80;99.90
33994;DHT22;20673;48.980;8.138;2023-08-21T03:48:45;19.70;99.90
33994;DHT22;20673;48.980;8.138;2023-08-21T03:51:11;19.70;99.90
33994;DHT22;20673;48.980;8.138;2023-08-21T03:53:38;19.70;99.90
33994;DHT22;20673;48.980;8.138;2023-08-21T03:56:04;19.70;99.90
33994;DHT22;20673;48.980;8.138;2023-08-21T03:58:31;19.70;99.90
33994;DHT22;20673;48.980;8.138;2023-08-21T04:00:58;19.70;99.90
33994;DHT22;20673;48.980;8.138;2023-08-21T04:03:24;19.60;99.90
33994;DHT22;20673;48.980;8.138;2023-08-21T04:05:53;19.60;99.90
33994;DHT22;20673;48.980;8.138;2023-08-21T04:08:20;19.70;99.90
33994;DHT22;20673;48.980;8.138;2023-08-21T04:10:46;19.60;99.90
33994;DHT22;20673;48.980;8.138;2023-08-21T04:13:12;19.60;99.90
33994;DHT22;20673;48.980;8.138;2023-08-21T04:15:38;19.60;99.90
33994;DHT22;20673;48.980;8.138;2023-08-21T04:18:05;19.50;99.90
33994;DHT22;20673;48.980;8.138;2023-08-21T04:20:31;19.50;99.90
33994;DHT22;20673;48.980;8.138;2023-08-21T04:22:57;19.50;99.90
33994;DHT22;20673;48.980;8.138;2023-08-21T04:25:23;19.40;99.90
33994;DHT22;20673;48.980;8.138;2023-08-21T04:27:49;19.50;99.90
33994;DHT22;20673;48.980;8.138;2023-08-21T04:30:15;19.40;99.90
33994;DHT22;20673;48.980;8.138;2023-08-21T04:32:42;19.50;99.90
33994;DHT22;20673;48.980;8.138;2023-08-21T04:35:08;19.50;99.90
33994;DHT22;20673;48.980;8.138;2023-08-21T04:37:34;19.50;99.90
33994;DHT22;20673;48.980;8.138;2023-08-21T04:40:03;19.50;99.90
33994;DHT22;20673;48.980;8.138;2023-08-21T04:42:29;19.50;99.90
33994;DHT22;20673;48.980;8.138;2023-08-21T04:44:55;19.50;99.90
33994;DHT22;20673;48.980;8.138;2023-08-21T04:47:28;19.50;99.90
33994;DHT22;20673;48.980;8.138;2023-08-21T04:49:53;19.50;99.90
33994;DHT22;20673;48.980;8.138;2023-08-21T04:52:20;19.50;99.90
33994;DHT22;20673;48.980;8.138;2023-08-21T04:54:48;19.50;99.90
33994;DHT22;20673;48.980;8.138;2023-08-21T04:57:15;19.40;99.90
33994;DHT22;20673;48.980;8.138;2023-08-21T04:59:43;19.50;99.90
33994;DHT22;20673;48.980;8.138;2023-08-21T05:02:09;19.60;99.90
33994;DHT22;20673;48.980;8.138;2023-08-21T05:04:36;19.70;99.90
33994;DHT22;20673;48.980;8.138;2023-08-21T05:07:03;19.60;99.90
33994;DHT22;20673;48.980;8.138;2023-08-21T05:09:31;19.60;99.90
33994;DHT22;20673;48.980;8.138;2023-08-21T05:11:58;19.60;99.90
33994;DHT22;20673;48.980;8.138;2023-08-21T05:14:24;19.70;99.90
33994;DHT22;20673;48.980;8.138;2023-08-21T05:16:50;19.80;99.90
33994;DHT22;20673;48.980;8.138;2023-08-21T05:19:17;19.90;99.90
33994;DHT22;20673;48.980;8.138;2023-08-21T05:21:43;19.90;99.90
33994;DHT22;20673;48.980;8.138;2023-08-21T05:24:11;19.90;99.90
33994;DHT22;20673;48.980;8.138;2023-08-21T05:26:38;19.90;99.90
33994;DHT22;20673;48.980;8.138;2023-08-21T05:29:04;20.00;99.90
33994;DHT22;20673;48.980;8.138;2023-08-21T05:31:31;20.10;99.90
33994;DHT22;20673;48.980;8.138;2023-08-21T05:33:57;20.20;99.90
33994;DHT22;20673;48.980;8.138;2023-08-21T05:36:23;20.30;99.90
33994;DHT22;20673;48.980;8.138;2023-08-21T05:38:49;20.30;99.90
33994;DHT22;20673;48.980;8.138;2023-08-21T05:41:17;20.40;99.90
33994;DHT22;20673;48.980;8.138;2023-08-21T05:43:43;20.40;99.90
33994;DHT22;20673;48.980;8.138;2023-08-21T05:46:11;20.50;99.90
33994;DHT22;20673;48.980;8.138;2023-08-21T05:48:37;20.60;99.90
33994;DHT22;20673;48.980;8.138;2023-08-21T05:51:04;20.60;99.90
33994;DHT22;20673;48.980;8.138;2023-08-21T05:53:30;20.80;99.90
33994;DHT22;20673;48.980;8.138;2023-08-21T05:55:57;20.90;99.90
33994;DHT22;20673;48.980;8.138;2023-08-21T05:58:23;21.00;99.90
33994;DHT22;20673;48.980;8.138;2023-08-21T06:00:49;21.10;99.90
33994;DHT22;20673;48.980;8.138;2023-08-21T06:03:15;21.30;99.90
33994;DHT22;20673;48.980;8.138;2023-08-21T06:05:41;21.40;99.90
33994;DHT22;20673;48.980;8.138;2023-08-21T06:08:09;21.60;99.90
33994;DHT22;20673;48.980;8.138;2023-08-21T06:10:35;21.80;99.90
33994;DHT22;20673;48.980;8.138;2023-08-21T06:13:01;21.90;99.90
33994;DHT22;20673;48.980;8.138;2023-08-21T06:15:28;22.00;99.90
33994;DHT22;20673;48.980;8.138;2023-08-21T06:17:54;22.20;99.90
33994;DHT22;20673;48.980;8.138;2023-08-21T06:20:20;22.30;99.90
33994;DHT22;20673;48.980;8.138;2023-08-21T06:22:46;22.50;99.90
33994;DHT22;20673;48.980;8.138;2023-08-21T06:25:12;22.60;99.90
33994;DHT22;20673;48.980;8.138;2023-08-21T06:27:39;22.70;99.90
33994;DHT22;20673;48.980;8.138;2023-08-21T06:30:06;22.80;99.90
33994;DHT22;20673;48.980;8.138;2023-08-21T06:32:33;22.90;99.90
33994;DHT22;20673;48.980;8.138;2023-08-21T06:34:59;23.00;99.90
33994;DHT22;20673;48.980;8.138;2023-08-21T06:37:25;23.00;99.90
33994;DHT22;20673;48.980;8.138;2023-08-21T06:39:51;23.10;99.90
33994;DHT22;20673;48.980;8.138;2023-08-21T06:42:17;23.20;99.90
33994;DHT22;20673;48.980;8.138;2023-08-21T06:44:44;23.30;99.90
33994;DHT22;20673;48.980;8.138;2023-08-21T06:47:10;23.40;99.90
33994;DHT22;20673;48.980;8.138;2023-08-21T06:49:36;23.50;99.90
33994;DHT22;20673;48.980;8.138;2023-08-21T06:52:03;23.70;99.90
33994;DHT22;20673;48.980;8.138;2023-08-21T06:54:29;23.70;99.90
33994;DHT22;20673;48.980;8.138;2023-08-21T06:56:55;23.80;99.90
33994;DHT22;20673;48.980;8.138;2023-08-21T06:59:21;23.80;99.90
33994;DHT22;20673;48.980;8.138;2023-08-21T07:01:47;23.90;99.90
33994;DHT22;20673;48.980;8.138;2023-08-21T07:04:13;24.00;99.90
33994;DHT22;20673;48.980;8.138;2023-08-21T07:06:40;24.20;99.90
33994;DHT22;20673;48.980;8.138;2023-08-21T07:09:06;24.30;99.90
33994;DHT22;20673;48.980;8.138;2023-08-21T07:11:32;24.30;99.90
33994;DHT22;20673;48.980;8.138;2023-08-21T07:13:58;24.40;99.90
33994;DHT22;20673;48.980;8.138;2023-08-21T07:16:24;24.60;99.90
33994;DHT22;20673;48.980;8.138;2023-08-21T07:18:52;24.70;99.90
33994;DHT22;20673;48.980;8.138;2023-08-21T07:21:18;24.80;99.90
33994;DHT22;20673;48.980;8.138;2023-08-21T07:23:44;24.80;99.90
33994;DHT22;20673;48.980;8.138;2023-08-21T07:26:10;25.00;99.90
33994;DHT22;20673;48.980;8.138;2023-08-21T07:28:36;25.10;99.90
33994;DHT22;20673;48.980;8.138;2023-08-21T07:31:03;25.20;99.90
33994;DHT22;20673;48.980;8.138;2023-08-21T07:33:29;25.30;99.90
33994;DHT22;20673;48.980;8.138;2023-08-21T07:36:01;25.50;99.90
33994;DHT22;20673;48.980;8.138;2023-08-21T07:38:28;25.60;99.90
33994;DHT22;20673;48.980;8.138;2023-08-21T07:41:08;25.70;99.90
33994;DHT22;20673;48.980;8.138;2023-08-21T07:43:43;25.80;99.90
33994;DHT22;20673;48.980;8.138;2023-08-21T07:46:11;25.90;99.90
33994;DHT22;20673;48.980;8.138;2023-08-21T07:48:42;26.10;99.90
33994;DHT22;20673;48.980;8.138;2023-08-21T07:51:08;26.10;99.90
33994;DHT22;20673;48.980;8.138;2023-08-21T07:53:35;26.20;99.90
33994;DHT22;20673;48.980;8.138;2023-08-21T07:56:02;26.30;99.90
33994;DHT22;20673;48.980;8.138;2023-08-21T07:58:32;26.40;99.90
33994;DHT22;20673;48.980;8.138;2023-08-21T08:00:59;26.60;99.90
33994;DHT22;20673;48.980;8.138;2023-08-21T08:03:27;26.70;99.90
33994;DHT22;20673;48.980;8.138;2023-08-21T08:05:53;26.80;99.90
33994;DHT22;20673;48.980;8.138;2023-08-21T08:08:19;26.80;99.90
33994;DHT22;20673;48.980;8.138;2023-08-21T08:10:46;27.00;99.90
33994;DHT22;20673;48.980;8.138;2023-08-21T08:13:12;27.20;99.90
33994;DHT22;20673;48.980;8.138;2023-08-21T08:15:39;27.30;99.90
33994;DHT22;20673;48.980;8.138;2023-08-21T08:18:05;27.40;99.90
33994;DHT22;20673;48.980;8.138;2023-08-21T08:20:33;27.50;99.90
33994;DHT22;20673;48.980;8.138;2023-08-21T08:22:59;27.80;99.90
33994;DHT22;20673;48.980;8.138;2023-08-21T08:25:25;27.90;99.90
33994;DHT22;20673;48.980;8.138;2023-08-21T08:27:51;28.10;99.90
33994;DHT22;20673;48.980;8.138;2023-08-21T08:30:18;28.20;99.90
33994;DHT22;20673;48.980;8.138;2023-08-21T08:32:44;28.50;99.90
33994;DHT22;20673;48.980;8.138;2023-08-21T08:35:12;28.50;99.90
33994;DHT22;20673;48.980;8.138;2023-08-21T08:37:41;28.80;99.90
33994;DHT22;20673;48.980;8.138;2023-08-21T08:40:08;29.00;99.90
33994;DHT22;20673;48.980;8.138;2023-08-21T08:42:36;28.80;99.90
33994;DHT22;20673;48.980;8.138;2023-08-21T08:45:03;29.10;99.90
33994;DHT22;20673;48.980;8.138;2023-08-21T08:47:32;29.20;99.90
33994;DHT22;20673;48.980;8.138;2023-08-21T08:50:07;29.20;99.90
33994;DHT22;20673;48.980;8.138;2023-08-21T08:52:39;29.40;99.90
33994;DHT22;20673;48.980;8.138;2023-08-21T08:55:05;29.50;99.90
33994;DHT22;20673;48.980;8.138;2023-08-21T08:57:34;29.80;99.90
33994;DHT22;20673;48.980;8.138;2023-08-21T09:00:06;29.90;99.90
33994;DHT22;20673;48.980;8.138;2023-08-21T09:02:30;30.10;99.90
33994;DHT22;20673;48.980;8.138;2023-08-21T09:04:57;30.50;99.90
33994;DHT22;20673;48.980;8.138;2023-08-21T09:07:25;30.50;99.90
33994;DHT22;20673;48.980;8.138;2023-08-21T09:09:51;30.60;99.90
33994;DHT22;20673;48.980;8.138;2023-08-21T09:12:19;30.80;99.90
33994;DHT22;20673;48.980;8.138;2023-08-21T09:14:45;30.80;99.90
33994;DHT22;20673;48.980;8.138;2023-08-21T09:17:13;31.00;99.90
33994;DHT22;20673;48.980;8.138;2023-08-21T09:19:40;31.00;99.90
33994;DHT22;20673;48.980;8.138;2023-08-21T09:22:14;31.20;99.90
33994;DHT22;20673;48.980;8.138;2023-08-21T09:25:04;31.30;99.90
33994;DHT22;20673;48.980;8.138;2023-08-21T09:27:33;31.50;99.90
33994;DHT22;20673;48.980;8.138;2023-08-21T09:30:03;31.80;99.90
33994;DHT22;20673;48.980;8.138;2023-08-21T09:35:23;32.00;99.90
33994;DHT22;20673;48.980;8.138;2023-08-21T09:37:49;32.20;99.90
33994;DHT22;20673;48.980;8.138;2023-08-21T09:40:18;32.50;99.90
33994;DHT22;20673;48.980;8.138;2023-08-21T09:42:52;32.70;99.90
33994;DHT22;20673;48.980;8.138;2023-08-21T09:45:21;32.90;99.90
33994;DHT22;20673;48.980;8.138;2023-08-21T09:47:48;32.90;99.90
33994;DHT22;20673;48.980;8.138;2023-08-21T09:50:16;33.00;99.90
33994;DHT22;20673;48.980;8.138;2023-08-21T09:52:44;32.90;99.90
33994;DHT22;20673;48.980;8.138;2023-08-21T09:55:13;32.80;99.90
33994;DHT22;20673;48.980;8.138;2023-08-21T09:57:40;33.30;99.90
33994;DHT22;20673;48.980;8.138;2023-08-21T10:00:07;33.60;99.90
33994;DHT22;20673;48.980;8.138;2023-08-21T10:02:36;33.40;99.90
33994;DHT22;20673;48.980;8.138;2023-08-21T10:05:03;33.30;99.90
33994;DHT22;20673;48.980;8.138;2023-08-21T10:07:31;33.60;99.90
33994;DHT22;20673;48.980;8.138;2023-08-21T10:09:59;33.80;99.90
33994;DHT22;20673;48.980;8.138;2023-08-21T10:12:26;33.80;99.90
33994;DHT22;20673;48.980;8.138;2023-08-21T10:14:52;34.10;99.90
33994;DHT22;20673;48.980;8.138;2023-08-21T10:17:19;34.00;99.90
33994;DHT22;20673;48.980;8.138;2023-08-21T10:19:51;34.00;99.90
33994;DHT22;20673;48.980;8.138;2023-08-21T10:25:24;34.20;99.90
33994;DHT22;20673;48.980;8.138;2023-08-21T10:27:59;34.30;99.90
33994;DHT22;20673;48.980;8.138;2023-08-21T10:30:24;34.00;99.90
33994;DHT22;20673;48.980;8.138;2023-08-21T10:32:53;34.20;99.90
33994;DHT22;20673;48.980;8.138;2023-08-21T10:35:29;34.40;99.90
33994;DHT22;20673;48.980;8.138;2023-08-21T10:38:12;34.50;99.90
33994;DHT22;20673;48.980;8.138;2023-08-21T10:43:40;34.70;99.90
33994;DHT22;20673;48.980;8.138;2023-08-21T10:46:12;34.60;99.90
33994;DHT22;20673;48.980;8.138;2023-08-21T10:48:39;34.80;99.90
33994;DHT22;20673;48.980;8.138;2023-08-21T10:51:07;35.00;99.90
33994;DHT22;20673;48.980;8.138;2023-08-21T10:53:38;35.00;99.90
33994;DHT22;20673;48.980;8.138;2023-08-21T10:56:07;35.40;99.90
33994;DHT22;20673;48.980;8.138;2023-08-21T10:58:41;35.40;99.90
33994;DHT22;20673;48.980;8.138;2023-08-21T11:01:08;35.80;99.90
33994;DHT22;20673;48.980;8.138;2023-08-21T11:03:34;36.10;99.90
33994;DHT22;20673;48.980;8.138;2023-08-21T11:06:07;36.20;99.90
33994;DHT22;20673;48.980;8.138;2023-08-21T11:08:35;36.50;99.90
33994;DHT22;20673;48.980;8.138;2023-08-21T11:11:04;36.70;99.90
33994;DHT22;20673;48.980;8.138;2023-08-21T11:13:31;36.80;99.90
33994;DHT22;20673;48.980;8.138;2023-08-21T11:16:03;36.70;99.90
33994;DHT22;20673;48.980;8.138;2023-08-21T11:18:38;36.80;99.90
33994;DHT22;20673;48.980;8.138;2023-08-21T11:21:07;36.80;99.90
33994;DHT22;20673;48.980;8.138;2023-08-21T11:23:36;36.20;99.90
33994;DHT22;20673;48.980;8.138;2023-08-21T11:26:05;36.20;99.90
33994;DHT22;20673;48.980;8.138;2023-08-21T11:28:33;36.40;99.90
33994;DHT22;20673;48.980;8.138;2023-08-21T11:30:59;36.30;99.90
33994;DHT22;20673;48.980;8.138;2023-08-21T11:33:26;36.00;99.90
33994;DHT22;20673;48.980;8.138;2023-08-21T11:35:54;35.90;99.90
33994;DHT22;20673;48.980;8.138;2023-08-21T11:38:24;35.90;99.90
33994;DHT22;20673;48.980;8.138;2023-08-21T11:40:54;35.90;99.90
33994;DHT22;20673;48.980;8.138;2023-08-21T11:43:33;36.10;99.90
33994;DHT22;20673;48.980;8.138;2023-08-21T11:46:02;36.30;99.90
33994;DHT22;20673;48.980;8.138;2023-08-21T11:48:29;36.20;99.90
33994;DHT22;20673;48.980;8.138;2023-08-21T11:50:56;36.10;99.90
33994;DHT22;20673;48.980;8.138;2023-08-21T11:53:37;36.30;99.90
33994;DHT22;20673;48.980;8.138;2023-08-21T11:56:13;36.20;99.90
33994;DHT22;20673;48.980;8.138;2023-08-21T11:58:42;36.40;99.90
33994;DHT22;20673;48.980;8.138;2023-08-21T12:01:20;36.20;99.90
33994;DHT22;20673;48.980;8.138;2023-08-21T12:03:46;36.50;99.00
33994;DHT22;20673;48.980;8.138;2023-08-21T12:06:14;36.70;99.70
33994;DHT22;20673;48.980;8.138;2023-08-21T12:08:41;36.70;99.00
33994;DHT22;20673;48.980;8.138;2023-08-21T12:11:07;36.80;96.40
33994;DHT22;20673;48.980;8.138;2023-08-21T12:13:33;36.70;95.50
33994;DHT22;20673;48.980;8.138;2023-08-21T12:16:00;36.40;95.70
33994;DHT22;20673;48.980;8.138;2023-08-21T12:18:26;36.30;94.50
33994;DHT22;20673;48.980;8.138;2023-08-21T12:20:52;36.50;97.60
33994;DHT22;20673;48.980;8.138;2023-08-21T12:23:18;36.60;97.70
33994;DHT22;20673;48.980;8.138;2023-08-21T12:25:44;36.60;95.30
33994;DHT22;20673;48.980;8.138;2023-08-21T12:28:11;36.60;96.80
33994;DHT22;20673;48.980;8.138;2023-08-21T12:30:37;36.80;97.90
33994;DHT22;20673;48.980;8.138;2023-08-21T12:33:04;36.80;95.90
33994;DHT22;20673;48.980;8.138;2023-08-21T12:35:30;37.00;94.10
33994;DHT22;20673;48.980;8.138;2023-08-21T12:37:57;36.80;93.30
33994;DHT22;20673;48.980;8.138;2023-08-21T12:40:24;36.70;93.70
33994;DHT22;20673;48.980;8.138;2023-08-21T12:42:50;36.40;94.10
33994;DHT22;20673;48.980;8.138;2023-08-21T12:45:17;36.50;94.20
33994;DHT22;20673;48.980;8.138;2023-08-21T12:47:43;36.40;92.60
33994;DHT22;20673;48.980;8.138;2023-08-21T12:50:10;36.10;93.20
33994;DHT22;20673;48.980;8.138;2023-08-21T12:52:36;36.10;93.20
33994;DHT22;20673;48.980;8.138;2023-08-21T12:55:03;36.10;95.40
33994;DHT22;20673;48.980;8.138;2023-08-21T12:57:31;36.40;93.40
33994;DHT22;20673;48.980;8.138;2023-08-21T12:59:57;36.00;94.00
33994;DHT22;20673;48.980;8.138;2023-08-21T13:02:24;36.00;93.40
33994;DHT22;20673;48.980;8.138;2023-08-21T13:04:52;36.30;92.20
33994;DHT22;20673;48.980;8.138;2023-08-21T13:07:18;36.50;91.70
33994;DHT22;20673;48.980;8.138;2023-08-21T13:09:45;36.70;92.90
33994;DHT22;20673;48.980;8.138;2023-08-21T13:12:11;36.80;94.90
33994;DHT22;20673;48.980;8.138;2023-08-21T13:14:38;36.90;90.90
33994;DHT22;20673;48.980;8.138;2023-08-21T13:17:04;37.00;91.40
33994;DHT22;20673;48.980;8.138;2023-08-21T13:19:30;36.70;91.00
33994;DHT22;20673;48.980;8.138;2023-08-21T13:21:57;36.50;91.40
33994;DHT22;20673;48.980;8.138;2023-08-21T13:24:23;36.40;90.70
33994;DHT22;20673;48.980;8.138;2023-08-21T13:26:49;36.60;91.40
33994;DHT22;20673;48.980;8.138;2023-08-21T13:29:15;36.50;91.30
33994;DHT22;20673;48.980;8.138;2023-08-21T13:31:41;36.80;93.50
33994;DHT22;20673;48.980;8.138;2023-08-21T13:34:07;36.80;90.70
33994;DHT22;20673;48.980;8.138;2023-08-21T13:36:34;36.60;90.90
33994;DHT22;20673;48.980;8.138;2023-08-21T13:39:00;36.50;91.30
33994;DHT22;20673;48.980;8.138;2023-08-21T13:41:29;36.50;90.70
33994;DHT22;20673;48.980;8.138;2023-08-21T13:43:55;36.40;90.20
33994;DHT22;20673;48.980;8.138;2023-08-21T13:46:21;36.40;90.10
33994;DHT22;20673;48.980;8.138;2023-08-21T13:48:48;36.60;90.50
33994;DHT22;20673;48.980;8.138;2023-08-21T13:51:14;36.80;92.00
33994;DHT22;20673;48.980;8.138;2023-08-21T13:53:41;36.90;93.30
33994;DHT22;20673;48.980;8.138;2023-08-21T13:56:07;37.20;88.70
33994;DHT22;20673;48.980;8.138;2023-08-21T13:58:34;37.10;86.20
33994;DHT22;20673;48.980;8.138;2023-08-21T14:01:00;36.90;84.90
33994;DHT22;20673;48.980;8.138;2023-08-21T14:03:26;36.60;90.00
33994;DHT22;20673;48.980;8.138;2023-08-21T14:05:52;37.00;90.10
33994;DHT22;20673;48.980;8.138;2023-08-21T14:08:18;37.60;91.40
33994;DHT22;20673;48.980;8.138;2023-08-21T14:10:44;37.60;87.80
33994;DHT22;20673;48.980;8.138;2023-08-21T14:13:10;37.80;83.60
33994;DHT22;20673;48.980;8.138;2023-08-21T14:15:37;37.80;79.20
33994;DHT22;20673;48.980;8.138;2023-08-21T14:18:04;37.50;80.30
33994;DHT22;20673;48.980;8.138;2023-08-21T14:20:30;37.40;82.70
33994;DHT22;20673;48.980;8.138;2023-08-21T14:22:57;37.50;80.50
33994;DHT22;20673;48.980;8.138;2023-08-21T14:25:23;37.10;81.40
33994;DHT22;20673;48.980;8.138;2023-08-21T14:27:49;37.30;79.10
33994;DHT22;20673;48.980;8.138;2023-08-21T14:30:15;37.10;81.60
33994;DHT22;20673;48.980;8.138;2023-08-21T14:32:42;37.00;78.10
33994;DHT22;20673;48.980;8.138;2023-08-21T14:35:08;36.90;78.60
33994;DHT22;20673;48.980;8.138;2023-08-21T14:37:36;36.70;78.20
33994;DHT22;20673;48.980;8.138;2023-08-21T14:40:03;36.70;80.80
33994;DHT22;20673;48.980;8.138;2023-08-21T14:42:31;36.50;81.00
33994;DHT22;20673;48.980;8.138;2023-08-21T14:44:57;36.80;79.50
33994;DHT22;20673;48.980;8.138;2023-08-21T14:47:24;37.20;82.00
33994;DHT22;20673;48.980;8.138;2023-08-21T14:49:50;37.40;88.90
33994;DHT22;20673;48.980;8.138;2023-08-21T14:52:17;37.40;87.20
33994;DHT22;20673;48.980;8.138;2023-08-21T14:54:43;37.70;83.90
33994;DHT22;20673;48.980;8.138;2023-08-21T14:57:09;38.20;82.00
33994;DHT22;20673;48.980;8.138;2023-08-21T14:59:35;38.20;74.40
33994;DHT22;20673;48.980;8.138;2023-08-21T15:02:01;38.00;74.60
33994;DHT22;20673;48.980;8.138;2023-08-21T15:04:27;37.80;77.60
33994;DHT22;20673;48.980;8.138;2023-08-21T15:06:53;38.00;74.20
33994;DHT22;20673;48.980;8.138;2023-08-21T15:09:19;38.00;72.60
33994;DHT22;20673;48.980;8.138;2023-08-21T15:11:46;37.80;73.30
33994;DHT22;20673;48.980;8.138;2023-08-21T15:14:12;37.80;72.00
33994;DHT22;20673;48.980;8.138;2023-08-21T15:16:38;37.80;78.60
33994;DHT22;20673;48.980;8.138;2023-08-21T15:19:05;38.00;71.90
33994;DHT22;20673;48.980;8.138;2023-08-21T15:21:31;37.90;71.60
33994;DHT22;20673;48.980;8.138;2023-08-21T15:23:57;37.80;73.20
33994;DHT22;20673;48.980;8.138;2023-08-21T15:26:23;37.70;72.30
33994;DHT22;20673;48.980;8.138;2023-08-21T15:28:50;37.60;72.00
33994;DHT22;20673;48.980;8.138;2023-08-21T15:31:16;37.40;72.10
33994;DHT22;20673;48.980;8.138;2023-08-21T15:33:42;37.40;73.00
33994;DHT22;20673;48.980;8.138;2023-08-21T15:36:08;37.40;74.10
33994;DHT22;20673;48.980;8.138;2023-08-21T15:38:35;37.40;75.30
33994;DHT22;20673;48.980;8.138;2023-08-21T15:41:01;37.80;72.30